Time;durP1;ratioP1;P1;durP2;ratioP2;P2;SDS_P1;SDS_P2;PMS_P1;PMS_P2;Temp;Humidity;BMP_temperature;BMP_pressure;BME280_temperature;BME280_humidity;BME280_pressure;Samples;Min_cycle;Max_cycle;Signal;HPM_P1;HPM_P2
2021/09/01 00:01:06;;;;;;;3.78;1.90;;;;;;;;;;5042242;28;21283;-59
2021/09/01 00:03:32;;;;;;;3.78;1.80;;;;;;;;;;5056839;28;20495;-54
2021/09/01 00:05:58;;;;;;;3.60;1.95;;;;;;;;;;5051063;28;20432;-55
2021/09/01 00:08:24;;;;;;;3.37;2.00;;;;;;;;;;5042691;28;20389;-59
2021/09/01 00:10:51;;;;;;;3.53;2.03;;;;;;;;;;5056624;28;20478;-57
2021/09/01 00:13:17;;;;;;;3.65;1.95;;;;;;;;;;5049708;28;20501;-53
2021/09/01 00:15:43;;;;;;;3.33;2.00;;;;;;;;;;5043552;28;20439;-54
2021/09/01 00:18:09;;;;;;;4.15;2.00;;;;;;;;;;5047495;28;20892;-55
2021/09/01 00:20:35;;;;;;;3.25;1.83;;;;;;;;;;5046094;28;20558;-54
2021/09/01 00:23:01;;;;;;;4.07;2.38;;;;;;;;;;5047155;28;20405;-57
2021/09/01 00:25:27;;;;;;;4.70;2.23;;;;;;;;;;5048672;28;20895;-54
2021/09/01 00:27:53;;;;;;;4.88;2.50;;;;;;;;;;5047358;28;20722;-56
2021/09/01 00:30:19;;;;;;;4.57;2.35;;;;;;;;;;5048034;28;20490;-54
2021/09/01 00:32:45;;;;;;;5.75;2.80;;;;;;;;;;5049303;28;20412;-55
2021/09/01 00:35:11;;;;;;;4.03;2.57;;;;;;;;;;5056721;28;20380;-57
2021/09/01 00:37:38;;;;;;;3.77;2.20;;;;;;;;;;5037553;28;20393;-59
2021/09/01 00:40:04;;;;;;;3.83;2.40;;;;;;;;;;5052011;28;20893;-57
2021/09/01 00:42:30;;;;;;;3.85;2.42;;;;;;;;;;5041843;28;20404;-56
2021/09/01 00:44:56;;;;;;;3.13;1.83;;;;;;;;;;5032628;28;20492;-59
2021/09/01 00:47:22;;;;;;;3.67;2.00;;;;;;;;;;5052636;28;20400;-56
2021/09/01 00:49:50;;;;;;;4.47;2.65;;;;;;;;;;5050750;28;20793;-55
2021/09/01 00:52:16;;;;;;;4.38;2.40;;;;;;;;;;5049116;28;20437;-57
2021/09/01 00:54:43;;;;;;;3.67;2.20;;;;;;;;;;5043671;28;20484;-59
2021/09/01 00:57:10;;;;;;;3.63;2.00;;;;;;;;;;5045916;28;20474;-52
2021/09/01 00:59:39;;;;;;;3.33;2.10;;;;;;;;;;5045141;28;20443;-57
2021/09/01 01:02:05;;;;;;;5.15;2.33;;;;;;;;;;5055898;28;20388;-55
2021/09/01 01:04:31;;;;;;;3.75;2.30;;;;;;;;;;5042926;28;20451;-54
2021/09/01 01:07:13;;;;;;;5.20;2.00;;;;;;;;;;5052699;28;20406;-53
2021/09/01 01:09:40;;;;;;;4.00;2.30;;;;;;;;;;5049085;28;20722;-54
2021/09/01 01:12:07;;;;;;;3.70;2.17;;;;;;;;;;5061390;28;20375;-54
2021/09/01 01:14:37;;;;;;;3.42;1.88;;;;;;;;;;5043770;28;20402;-54
2021/09/01 01:17:04;;;;;;;3.42;2.03;;;;;;;;;;5048655;28;20405;-55
2021/09/01 01:19:30;;;;;;;3.95;2.15;;;;;;;;;;5040101;28;20779;-53
2021/09/01 01:21:58;;;;;;;4.68;2.80;;;;;;;;;;5055575;28;20398;-53
2021/09/01 01:24:25;;;;;;;4.38;2.35;;;;;;;;;;5040723;28;20913;-54
2021/09/01 01:26:51;;;;;;;4.53;2.42;;;;;;;;;;5051300;28;20395;-55
2021/09/01 01:29:17;;;;;;;3.95;2.35;;;;;;;;;;5043822;28;20401;-57
2021/09/01 01:31:43;;;;;;;3.83;2.13;;;;;;;;;;5043875;28;20394;-58
2021/09/01 01:34:13;;;;;;;5.53;2.97;;;;;;;;;;5045458;28;20435;-57
2021/09/01 01:36:39;;;;;;;5.43;2.85;;;;;;;;;;5046951;28;20721;-57
2021/09/01 01:39:05;;;;;;;4.75;2.58;;;;;;;;;;5045012;28;20493;-57
2021/09/01 01:41:31;;;;;;;5.53;2.80;;;;;;;;;;5052762;28;20397;-53
2021/09/01 01:43:57;;;;;;;4.93;2.85;;;;;;;;;;5046302;28;20389;-53
2021/09/01 01:46:23;;;;;;;4.87;2.87;;;;;;;;;;5059079;28;20388;-55
2021/09/01 01:48:49;;;;;;;5.60;2.97;;;;;;;;;;5039943;28;20724;-55
2021/09/01 01:51:15;;;;;;;3.78;2.30;;;;;;;;;;5046609;28;20762;-54
2021/09/01 01:53:41;;;;;;;4.47;2.67;;;;;;;;;;5035490;28;20415;-54
2021/09/01 01:56:07;;;;;;;5.15;2.92;;;;;;;;;;5045426;28;20443;-56
2021/09/01 01:58:33;;;;;;;5.50;3.15;;;;;;;;;;5039689;28;20396;-53
2021/09/01 02:00:59;;;;;;;5.00;2.87;;;;;;;;;;5046267;28;20389;-51
2021/09/01 02:03:25;;;;;;;4.93;2.53;;;;;;;;;;5049043;28;20549;-51
2021/09/01 02:05:51;;;;;;;5.63;2.85;;;;;;;;;;5039188;28;20406;-52
2021/09/01 02:08:17;;;;;;;5.13;2.97;;;;;;;;;;5044116;28;20382;-54
2021/09/01 02:10:43;;;;;;;5.32;3.05;;;;;;;;;;5046894;28;20741;-55
2021/09/01 02:13:09;;;;;;;4.82;3.03;;;;;;;;;;5053249;28;20490;-55
2021/09/01 02:15:35;;;;;;;5.13;2.75;;;;;;;;;;5056004;28;20884;-52
2021/09/01 02:18:01;;;;;;;6.75;3.10;;;;;;;;;;5055959;28;20416;-58
2021/09/01 02:20:28;;;;;;;5.15;3.17;;;;;;;;;;5053766;28;20385;-58
2021/09/01 02:22:54;;;;;;;4.93;2.70;;;;;;;;;;5060171;28;20447;-57
2021/09/01 02:25:20;;;;;;;4.82;2.72;;;;;;;;;;5050339;28;20487;-58
2021/09/01 02:27:46;;;;;;;4.60;2.92;;;;;;;;;;5051157;28;20894;-57
2021/09/01 02:30:12;;;;;;;5.38;3.22;;;;;;;;;;5043710;28;20399;-54
2021/09/01 02:32:38;;;;;;;4.90;2.72;;;;;;;;;;5054631;28;20403;-55
2021/09/01 02:35:05;;;;;;;5.60;2.90;;;;;;;;;;5052270;28;20857;-57
2021/09/01 02:37:30;;;;;;;5.63;3.28;;;;;;;;;;5049306;28;20422;-57
2021/09/01 02:39:56;;;;;;;4.95;3.15;;;;;;;;;;5051612;28;20596;-55
2021/09/01 02:42:23;;;;;;;6.40;3.75;;;;;;;;;;5059362;28;20388;-51
2021/09/01 02:44:49;;;;;;;5.93;3.58;;;;;;;;;;5052855;28;20432;-55
2021/09/01 02:47:15;;;;;;;5.43;3.40;;;;;;;;;;5050833;28;20419;-54
2021/09/01 02:49:41;;;;;;;6.20;3.60;;;;;;;;;;5046516;28;20393;-54
2021/09/01 02:52:07;;;;;;;5.75;3.30;;;;;;;;;;5054913;28;20422;-54
2021/09/01 02:54:33;;;;;;;4.90;2.95;;;;;;;;;;5050479;28;20411;-56
2021/09/01 02:56:59;;;;;;;6.85;3.78;;;;;;;;;;5049919;28;20424;-56
2021/09/01 02:59:25;;;;;;;6.93;3.83;;;;;;;;;;5060400;28;20392;-54
2021/09/01 03:01:51;;;;;;;6.70;3.70;;;;;;;;;;5049307;28;20476;-54
2021/09/01 03:04:17;;;;;;;5.43;3.42;;;;;;;;;;5046424;28;20433;-58
2021/09/01 03:06:43;;;;;;;5.67;3.37;;;;;;;;;;5042928;28;20500;-57
2021/09/01 03:09:09;;;;;;;7.88;4.10;;;;;;;;;;5048644;28;20403;-55
2021/09/01 03:11:35;;;;;;;5.60;3.40;;;;;;;;;;5053701;28;20862;-56
2021/09/01 03:14:01;;;;;;;5.88;3.60;;;;;;;;;;5061824;28;20430;-57
2021/09/01 03:16:27;;;;;;;6.40;3.63;;;;;;;;;;5051132;28;20497;-56
2021/09/01 03:18:53;;;;;;;5.82;3.47;;;;;;;;;;5052195;28;20421;-54
2021/09/01 03:21:19;;;;;;;5.07;3.23;;;;;;;;;;5045373;28;20403;-54
2021/09/01 03:23:45;;;;;;;5.27;3.20;;;;;;;;;;5050608;28;20388;-52
2021/09/01 03:26:11;;;;;;;5.80;3.00;;;;;;;;;;5047547;28;20414;-54
2021/09/01 03:28:37;;;;;;;5.28;3.22;;;;;;;;;;5058965;28;20463;-57
2021/09/01 03:31:03;;;;;;;7.93;4.30;;;;;;;;;;5050655;28;20416;-58
2021/09/01 03:33:28;;;;;;;5.47;3.38;;;;;;;;;;5057947;28;20405;-56
2021/09/01 03:35:54;;;;;;;5.55;3.10;;;;;;;;;;5051924;28;20437;-55
2021/09/01 03:38:20;;;;;;;5.03;3.00;;;;;;;;;;5043166;28;20391;-58
2021/09/01 03:40:46;;;;;;;5.83;3.07;;;;;;;;;;5049850;28;20421;-54
2021/09/01 03:43:12;;;;;;;5.60;3.30;;;;;;;;;;5051530;28;20394;-55
2021/09/01 03:45:38;;;;;;;5.85;3.10;;;;;;;;;;5044355;28;20429;-57
2021/09/01 03:48:05;;;;;;;6.18;3.40;;;;;;;;;;5048328;28;20439;-55
2021/09/01 03:50:31;;;;;;;6.32;3.35;;;;;;;;;;5050288;28;20472;-52
2021/09/01 03:52:57;;;;;;;4.13;2.85;;;;;;;;;;5053277;28;20480;-52
2021/09/01 03:55:23;;;;;;;9.50;4.55;;;;;;;;;;5044217;28;20851;-52
2021/09/01 03:57:49;;;;;;;5.38;3.13;;;;;;;;;;5056480;28;20427;-52
2021/09/01 04:00:15;;;;;;;5.65;3.38;;;;;;;;;;5044271;28;20390;-54
2021/09/01 04:02:41;;;;;;;6.07;3.50;;;;;;;;;;5055208;28;20395;-55
2021/09/01 04:05:07;;;;;;;5.63;3.25;;;;;;;;;;5047550;28;20749;-55
2021/09/01 04:07:33;;;;;;;5.20;2.78;;;;;;;;;;5050818;28;20487;-56
2021/09/01 04:09:59;;;;;;;5.10;3.15;;;;;;;;;;5047035;28;20397;-53
2021/09/01 04:12:25;;;;;;;5.45;3.28;;;;;;;;;;5048987;28;20421;-55
2021/09/01 04:14:51;;;;;;;5.07;3.10;;;;;;;;;;5041029;28;20492;-56
2021/09/01 04:17:17;;;;;;;7.90;3.50;;;;;;;;;;5046986;28;20497;-57
2021/09/01 04:19:43;;;;;;;6.70;3.43;;;;;;;;;;5045256;28;20397;-56
2021/09/01 04:22:09;;;;;;;5.57;3.03;;;;;;;;;;5042049;28;20392;-55
2021/09/01 04:24:35;;;;;;;6.43;3.60;;;;;;;;;;5045119;28;20411;-57
2021/09/01 04:27:01;;;;;;;6.40;3.83;;;;;;;;;;5047417;28;20405;-54
2021/09/01 04:29:27;;;;;;;7.82;4.03;;;;;;;;;;5038475;28;20399;-53
2021/09/01 04:31:53;;;;;;;5.00;3.10;;;;;;;;;;5059367;28;20741;-52
2021/09/01 04:34:19;;;;;;;6.65;3.60;;;;;;;;;;5068826;28;20541;-56
2021/09/01 04:36:45;;;;;;;5.57;3.10;;;;;;;;;;5051109;28;20398;-54
2021/09/01 04:39:11;;;;;;;5.35;3.28;;;;;;;;;;5033887;28;20395;-52
2021/09/01 04:41:37;;;;;;;4.77;2.97;;;;;;;;;;5059117;28;20491;-51
2021/09/01 04:44:03;;;;;;;5.00;3.10;;;;;;;;;;5035301;28;21077;-52
2021/09/01 04:46:29;;;;;;;5.15;3.00;;;;;;;;;;5052484;28;20406;-55
2021/09/01 04:48:55;;;;;;;7.45;3.83;;;;;;;;;;5038006;28;20400;-52
2021/09/01 04:51:21;;;;;;;7.20;3.60;;;;;;;;;;5044865;28;20965;-53
2021/09/01 04:53:47;;;;;;;5.40;3.30;;;;;;;;;;5045668;28;20408;-51
2021/09/01 04:56:13;;;;;;;5.20;2.92;;;;;;;;;;5059653;28;20390;-53
2021/09/01 04:58:39;;;;;;;5.70;3.50;;;;;;;;;;5057565;28;20487;-51
2021/09/01 05:01:05;;;;;;;5.80;3.50;;;;;;;;;;5043045;28;20391;-57
2021/09/01 05:03:31;;;;;;;4.40;2.88;;;;;;;;;;5040601;28;20490;-56
2021/09/01 05:05:57;;;;;;;6.80;3.42;;;;;;;;;;5053487;28;20395;-57
2021/09/01 05:08:23;;;;;;;4.15;2.72;;;;;;;;;;5047798;28;20412;-55
2021/09/01 05:10:49;;;;;;;5.25;3.33;;;;;;;;;;5044002;28;20418;-56
2021/09/01 05:13:15;;;;;;;5.88;3.40;;;;;;;;;;5060940;28;20407;-53
2021/09/01 05:15:41;;;;;;;6.78;3.55;;;;;;;;;;5055331;28;20898;-54
2021/09/01 05:18:07;;;;;;;4.70;2.80;;;;;;;;;;5048526;28;20446;-56
2021/09/01 05:20:37;;;;;;;6.27;3.43;;;;;;;;;;5054425;28;20802;-51
2021/09/01 05:23:05;;;;;;;6.35;3.88;;;;;;;;;;5056035;28;20427;-54
2021/09/01 05:25:36;;;;;;;6.20;3.42;;;;;;;;;;5045363;28;20960;-52
2021/09/01 05:28:03;;;;;;;6.97;3.97;;;;;;;;;;5032766;28;20395;-54
2021/09/01 05:30:30;;;;;;;5.22;3.72;;;;;;;;;;5041982;28;20404;-56
2021/09/01 05:32:57;;;;;;;5.88;3.53;;;;;;;;;;5031887;28;20729;-56
2021/09/01 05:35:23;;;;;;;5.38;3.05;;;;;;;;;;5033830;28;20509;-56
2021/09/01 05:37:49;;;;;;;5.45;3.17;;;;;;;;;;5032321;28;20902;-55
2021/09/01 05:40:15;;;;;;;5.55;3.47;;;;;;;;;;5031324;28;20485;-54
2021/09/01 05:42:41;;;;;;;6.00;3.38;;;;;;;;;;5038214;28;20484;-53
2021/09/01 05:45:08;;;;;;;5.00;3.25;;;;;;;;;;5039381;28;20395;-52
2021/09/01 05:47:34;;;;;;;6.45;3.40;;;;;;;;;;5047955;28;20428;-54
2021/09/01 05:50:00;;;;;;;6.57;3.97;;;;;;;;;;5043964;28;20428;-54
2021/09/01 05:52:29;;;;;;;7.90;4.30;;;;;;;;;;5037366;28;20964;-56
2021/09/01 05:54:58;;;;;;;6.07;3.70;;;;;;;;;;5041370;28;20398;-57
2021/09/01 05:57:33;;;;;;;5.20;3.10;;;;;;;;;;5053724;28;20395;-56
2021/09/01 06:00:02;;;;;;;7.60;3.95;;;;;;;;;;5039111;28;20395;-57
2021/09/01 06:02:34;;;;;;;7.72;4.07;;;;;;;;;;5036950;28;20421;-57
2021/09/01 06:05:03;;;;;;;9.27;4.03;;;;;;;;;;5049829;28;20560;-51
2021/09/01 06:07:30;;;;;;;7.57;4.43;;;;;;;;;;5050586;28;20390;-57
2021/09/01 06:09:58;;;;;;;7.28;4.20;;;;;;;;;;5040626;28;20404;-56
2021/09/01 06:12:26;;;;;;;5.77;3.67;;;;;;;;;;5048676;28;20421;-56
2021/09/01 06:14:52;;;;;;;6.68;3.95;;;;;;;;;;5053404;28;20480;-57
2021/09/01 06:17:18;;;;;;;8.07;4.03;;;;;;;;;;5049433;28;20433;-54
2021/09/01 06:19:44;;;;;;;8.38;4.57;;;;;;;;;;5049565;28;20391;-52
2021/09/01 06:22:10;;;;;;;5.15;3.00;;;;;;;;;;5059184;28;20708;-52
2021/09/01 06:24:36;;;;;;;6.05;3.58;;;;;;;;;;5055218;28;20474;-56
2021/09/01 06:27:03;;;;;;;5.97;3.42;;;;;;;;;;5049985;28;20405;-55
2021/09/01 06:29:29;;;;;;;7.30;4.03;;;;;;;;;;5056522;28;20396;-53
2021/09/01 06:31:55;;;;;;;7.03;3.80;;;;;;;;;;5043341;28;20397;-56
2021/09/01 06:34:21;;;;;;;10.57;4.40;;;;;;;;;;5050412;28;21288;-51
2021/09/01 06:36:47;;;;;;;6.65;3.85;;;;;;;;;;5047086;28;20399;-53
2021/09/01 06:39:14;;;;;;;7.65;3.55;;;;;;;;;;5054890;28;20385;-56
2021/09/01 06:41:40;;;;;;;5.88;3.47;;;;;;;;;;5052849;28;20721;-54
2021/09/01 06:44:06;;;;;;;5.13;2.73;;;;;;;;;;5054355;28;20405;-57
2021/09/01 06:46:32;;;;;;;8.27;4.03;;;;;;;;;;5051718;28;20411;-54
2021/09/01 06:48:59;;;;;;;5.93;3.40;;;;;;;;;;5053014;28;22122;-53
2021/09/01 06:51:25;;;;;;;5.55;3.35;;;;;;;;;;5053470;28;20390;-57
2021/09/01 06:53:50;;;;;;;4.70;2.77;;;;;;;;;;5051814;28;20415;-57
2021/09/01 06:56:16;;;;;;;6.45;3.10;;;;;;;;;;5034711;28;20393;-56
2021/09/01 06:58:42;;;;;;;6.20;3.10;;;;;;;;;;5051286;28;20396;-51
2021/09/01 07:01:08;;;;;;;5.63;2.63;;;;;;;;;;5053042;28;20397;-57
2021/09/01 07:03:35;;;;;;;4.78;2.58;;;;;;;;;;5043948;28;20393;-55
2021/09/01 07:06:01;;;;;;;8.70;3.55;;;;;;;;;;5062711;28;20430;-52
2021/09/01 07:08:27;;;;;;;6.72;3.70;;;;;;;;;;5057156;28;20395;-57
2021/09/01 07:10:53;;;;;;;4.80;3.38;;;;;;;;;;5055318;28;20386;-56
2021/09/01 07:13:19;;;;;;;5.70;2.90;;;;;;;;;;5042498;28;20424;-53
2021/09/01 07:15:46;;;;;;;5.00;2.75;;;;;;;;;;5058941;28;20722;-52
2021/09/01 07:18:12;;;;;;;5.10;3.13;;;;;;;;;;5051168;28;20446;-56
2021/09/01 07:20:38;;;;;;;5.68;3.35;;;;;;;;;;5054381;28;20381;-51
2021/09/01 07:23:05;;;;;;;6.57;3.30;;;;;;;;;;5050142;28;20399;-52
2021/09/01 07:25:32;;;;;;;5.53;2.72;;;;;;;;;;5045551;28;20405;-54
2021/09/01 07:27:59;;;;;;;6.38;3.03;;;;;;;;;;5052191;28;20377;-53
2021/09/01 07:30:25;;;;;;;6.82;3.00;;;;;;;;;;5057382;28;20483;-55
2021/09/01 07:32:51;;;;;;;6.32;3.17;;;;;;;;;;5043764;28;20541;-51
2021/09/01 07:35:17;;;;;;;7.80;3.65;;;;;;;;;;5052407;28;20417;-51
2021/09/01 07:37:44;;;;;;;5.68;3.03;;;;;;;;;;5054059;28;20397;-52
2021/09/01 07:40:10;;;;;;;6.60;2.97;;;;;;;;;;5048136;28;20392;-57
2021/09/01 07:42:36;;;;;;;5.43;2.80;;;;;;;;;;5050803;28;20423;-57
2021/09/01 07:45:02;;;;;;;4.88;2.95;;;;;;;;;;5053365;28;20404;-54
2021/09/01 07:47:28;;;;;;;6.45;3.55;;;;;;;;;;5053514;28;20738;-51
2021/09/01 07:49:54;;;;;;;6.38;3.33;;;;;;;;;;5058441;28;20499;-53
2021/09/01 07:52:20;;;;;;;5.30;3.20;;;;;;;;;;5053079;28;20875;-56
2021/09/01 07:54:46;;;;;;;7.93;3.75;;;;;;;;;;5052293;28;20766;-52
2021/09/01 07:57:12;;;;;;;6.70;3.55;;;;;;;;;;5051755;28;20527;-53
2021/09/01 07:59:38;;;;;;;6.07;3.67;;;;;;;;;;5052760;28;20469;-53
2021/09/01 08:02:04;;;;;;;6.80;3.88;;;;;;;;;;5050351;28;20395;-53
2021/09/01 08:04:30;;;;;;;5.32;3.13;;;;;;;;;;5036598;28;20520;-54
2021/09/01 08:06:56;;;;;;;7.07;3.85;;;;;;;;;;5054587;28;20411;-52
2021/09/01 08:09:22;;;;;;;7.45;3.95;;;;;;;;;;5041639;28;20432;-53
2021/09/01 08:11:48;;;;;;;5.80;3.67;;;;;;;;;;5044499;28;20405;-52
2021/09/01 08:14:14;;;;;;;6.18;3.58;;;;;;;;;;5052464;28;20516;-51
2021/09/01 08:16:40;;;;;;;6.35;4.03;;;;;;;;;;5041664;28;20428;-55
2021/09/01 08:19:06;;;;;;;7.65;3.30;;;;;;;;;;5054647;28;20394;-52
2021/09/01 08:21:32;;;;;;;7.00;3.70;;;;;;;;;;5051232;28;20391;-52
2021/09/01 08:23:58;;;;;;;6.57;4.05;;;;;;;;;;5047479;28;20443;-52
2021/09/01 08:26:24;;;;;;;6.30;3.80;;;;;;;;;;5042988;28;20494;-57
2021/09/01 08:28:51;;;;;;;8.30;3.97;;;;;;;;;;5053931;28;20411;-57
2021/09/01 08:31:17;;;;;;;6.77;4.27;;;;;;;;;;5048751;28;20476;-56
2021/09/01 08:33:43;;;;;;;7.72;4.35;;;;;;;;;;5042800;28;20405;-54
2021/09/01 08:36:09;;;;;;;8.50;4.60;;;;;;;;;;5049626;28;20892;-56
2021/09/01 08:38:36;;;;;;;8.50;4.40;;;;;;;;;;5052883;28;20397;-57
2021/09/01 08:41:02;;;;;;;7.27;3.93;;;;;;;;;;5051068;28;20498;-55
2021/09/01 08:43:28;;;;;;;6.95;4.38;;;;;;;;;;5050089;28;20488;-53
2021/09/01 08:45:55;;;;;;;9.45;4.82;;;;;;;;;;5051064;28;20378;-53
2021/09/01 08:48:22;;;;;;;7.05;3.92;;;;;;;;;;5053597;28;20818;-55
2021/09/01 08:50:48;;;;;;;7.50;4.60;;;;;;;;;;5055865;28;20382;-53
2021/09/01 08:53:14;;;;;;;7.72;4.45;;;;;;;;;;5044646;28;20752;-51
2021/09/01 08:55:40;;;;;;;7.28;4.20;;;;;;;;;;5051680;28;20406;-54
2021/09/01 08:58:06;;;;;;;6.20;3.83;;;;;;;;;;5054183;28;20451;-52
2021/09/01 09:00:32;;;;;;;7.85;4.70;;;;;;;;;;5046527;28;20399;-51
2021/09/01 09:02:59;;;;;;;6.40;4.13;;;;;;;;;;5042490;28;20812;-52
2021/09/01 09:05:33;;;;;;;6.97;4.35;;;;;;;;;;5048533;28;20476;-57
2021/09/01 09:07:59;;;;;;;6.65;3.95;;;;;;;;;;5042686;28;20398;-52
2021/09/01 09:10:35;;;;;;;6.83;4.20;;;;;;;;;;5054740;28;20419;-51
2021/09/01 09:13:03;;;;;;;7.30;4.57;;;;;;;;;;5049358;28;20777;-55
2021/09/01 09:15:29;;;;;;;6.47;4.00;;;;;;;;;;5049130;28;20389;-55
2021/09/01 09:17:55;;;;;;;7.07;3.65;;;;;;;;;;5042219;28;21245;-52
2021/09/01 09:20:47;;;;;;;6.18;3.80;;;;;;;;;;5050400;28;20389;-52
2021/09/01 09:23:13;;;;;;;7.95;4.38;;;;;;;;;;5037411;28;20829;-51
2021/09/01 09:25:39;;;;;;;5.25;3.50;;;;;;;;;;5051001;28;20394;-56
2021/09/01 09:28:06;;;;;;;5.80;3.90;;;;;;;;;;5054756;28;20979;-52
2021/09/01 09:30:34;;;;;;;6.35;3.70;;;;;;;;;;5052072;28;20857;-51
2021/09/01 09:33:02;;;;;;;6.35;3.95;;;;;;;;;;5045545;28;20411;-54
2021/09/01 09:35:45;;;;;;;5.80;3.70;;;;;;;;;;5058417;28;20462;-51
2021/09/01 09:38:12;;;;;;;6.95;4.70;;;;;;;;;;5054199;28;20380;-54
2021/09/01 09:40:38;;;;;;;6.93;4.07;;;;;;;;;;5056989;28;20857;-52
2021/09/01 09:43:17;;;;;;;8.48;4.53;;;;;;;;;;5051413;28;20407;-53
2021/09/01 09:45:43;;;;;;;8.30;5.13;;;;;;;;;;5053232;28;20386;-55
2021/09/01 09:48:09;;;;;;;7.65;4.70;;;;;;;;;;5059070;28;20384;-51
2021/09/01 09:50:36;;;;;;;8.20;5.00;;;;;;;;;;5054266;28;20466;-54
2021/09/01 09:53:02;;;;;;;10.63;6.55;;;;;;;;;;5050334;28;20895;-54
2021/09/01 09:55:28;;;;;;;8.80;4.30;;;;;;;;;;5053154;28;20397;-53
2021/09/01 09:57:55;;;;;;;6.35;3.97;;;;;;;;;;5033079;28;20517;-52
2021/09/01 10:00:22;;;;;;;7.75;4.35;;;;;;;;;;5065493;28;20367;-55
2021/09/01 10:02:48;;;;;;;6.80;4.07;;;;;;;;;;5059005;28;20407;-56
2021/09/01 10:05:15;;;;;;;6.53;4.00;;;;;;;;;;5039972;28;20382;-56
2021/09/01 10:07:41;;;;;;;6.70;4.10;;;;;;;;;;5049758;28;20385;-56
2021/09/01 10:10:08;;;;;;;8.43;4.53;;;;;;;;;;5049971;28;20397;-54
2021/09/01 10:12:37;;;;;;;7.38;4.28;;;;;;;;;;5052643;28;20471;-55
2021/09/01 10:15:03;;;;;;;8.80;5.05;;;;;;;;;;5052602;28;20392;-55
2021/09/01 10:17:29;;;;;;;8.53;4.83;;;;;;;;;;5048982;28;20490;-56
2021/09/01 10:19:56;;;;;;;8.00;4.60;;;;;;;;;;5059866;28;20478;-53
2021/09/01 10:22:22;;;;;;;5.70;3.13;;;;;;;;;;5025820;28;20807;-54
2021/09/01 10:24:49;;;;;;;6.68;4.10;;;;;;;;;;5048813;28;20405;-54
2021/09/01 10:27:22;;;;;;;5.95;3.63;;;;;;;;;;5051322;28;20382;-51
2021/09/01 10:29:48;;;;;;;5.95;3.70;;;;;;;;;;5055304;28;20439;-55
2021/09/01 10:32:17;;;;;;;7.35;4.57;;;;;;;;;;5052843;28;20389;-56
2021/09/01 10:34:43;;;;;;;7.07;3.90;;;;;;;;;;5047310;28;20413;-52
2021/09/01 10:37:09;;;;;;;7.93;4.27;;;;;;;;;;5056912;28;20393;-55
2021/09/01 10:39:35;;;;;;;6.40;3.95;;;;;;;;;;5044876;28;20761;-52
2021/09/01 10:42:20;;;;;;;5.85;3.83;;;;;;;;;;5056751;28;20624;-52
2021/09/01 10:44:48;;;;;;;7.43;3.70;;;;;;;;;;5051759;28;20426;-54
2021/09/01 10:47:14;;;;;;;6.63;3.78;;;;;;;;;;5043179;28;20440;-56
2021/09/01 10:49:55;;;;;;;6.35;3.90;;;;;;;;;;5061237;28;20712;-51
2021/09/01 10:52:22;;;;;;;6.78;4.00;;;;;;;;;;5044995;28;20379;-53
2021/09/01 10:54:49;;;;;;;6.10;3.60;;;;;;;;;;5044797;28;20514;-55
2021/09/01 10:57:22;;;;;;;5.63;3.30;;;;;;;;;;5060410;28;20470;-53
2021/09/01 10:59:49;;;;;;;7.35;3.63;;;;;;;;;;5052912;28;20402;-57
2021/09/01 11:02:16;;;;;;;6.72;3.97;;;;;;;;;;5051186;28;20566;-57
2021/09/01 11:04:49;;;;;;;5.97;3.65;;;;;;;;;;5052063;28;20401;-52
2021/09/01 11:07:22;;;;;;;6.68;3.22;;;;;;;;;;5056951;28;20395;-53
2021/09/01 11:09:58;;;;;;;6.20;3.38;;;;;;;;;;5038830;28;20902;-52
2021/09/01 11:12:24;;;;;;;4.90;3.08;;;;;;;;;;5050243;28;20417;-52
2021/09/01 11:14:52;;;;;;;4.75;3.28;;;;;;;;;;5041308;28;20418;-56
2021/09/01 11:17:19;;;;;;;5.82;3.08;;;;;;;;;;5040230;28;20419;-56
2021/09/01 11:19:46;;;;;;;3.88;2.67;;;;;;;;;;5057528;28;20379;-57
2021/09/01 11:22:14;;;;;;;5.93;3.05;;;;;;;;;;5051797;28;20391;-57
2021/09/01 11:24:50;;;;;;;6.07;3.80;;;;;;;;;;5056348;28;20404;-56
2021/09/01 11:27:18;;;;;;;5.22;3.10;;;;;;;;;;5052106;28;20389;-56
2021/09/01 11:29:44;;;;;;;5.47;3.58;;;;;;;;;;5048688;28;20496;-54
2021/09/01 11:32:14;;;;;;;6.00;3.20;;;;;;;;;;5042558;28;20486;-53
2021/09/01 11:34:40;;;;;;;5.13;3.13;;;;;;;;;;5046422;28;20411;-56
2021/09/01 11:37:06;;;;;;;4.80;3.10;;;;;;;;;;5048135;28;20404;-52
2021/09/01 11:39:39;;;;;;;5.17;3.10;;;;;;;;;;5058456;28;20492;-57
2021/09/01 11:42:05;;;;;;;5.15;3.22;;;;;;;;;;5054476;28;20861;-53
2021/09/01 11:44:31;;;;;;;5.47;2.65;;;;;;;;;;5053301;28;20387;-55
2021/09/01 11:46:57;;;;;;;5.38;2.85;;;;;;;;;;5044497;28;20403;-53
2021/09/01 11:49:23;;;;;;;5.50;3.20;;;;;;;;;;5064315;28;20422;-55
2021/09/01 11:51:50;;;;;;;5.65;3.25;;;;;;;;;;5049451;28;20964;-56
2021/09/01 11:54:16;;;;;;;4.93;2.75;;;;;;;;;;5052633;28;20414;-52
2021/09/01 11:56:43;;;;;;;5.22;2.90;;;;;;;;;;5049678;28;20428;-55
2021/09/01 11:59:10;;;;;;;4.50;2.60;;;;;;;;;;5046464;28;20487;-53
2021/09/01 12:01:38;;;;;;;4.82;2.95;;;;;;;;;;5053405;28;20984;-51
2021/09/01 12:04:04;;;;;;;5.85;3.00;;;;;;;;;;5045982;28;20803;-51
2021/09/01 12:06:34;;;;;;;5.43;3.17;;;;;;;;;;5043043;28;20510;-52
2021/09/01 12:09:00;;;;;;;4.50;2.83;;;;;;;;;;5049114;28;20502;-53
2021/09/01 12:11:29;;;;;;;4.85;3.30;;;;;;;;;;5042423;28;20433;-54
2021/09/01 12:14:00;;;;;;;4.68;3.33;;;;;;;;;;5040248;28;20510;-57
2021/09/01 12:16:26;;;;;;;4.70;2.78;;;;;;;;;;5038567;28;20389;-57
2021/09/01 12:18:53;;;;;;;4.40;2.95;;;;;;;;;;5040569;28;20413;-57
2021/09/01 12:21:20;;;;;;;4.97;2.90;;;;;;;;;;5040214;28;20408;-57
2021/09/01 12:23:47;;;;;;;5.50;2.63;;;;;;;;;;5038113;28;20387;-57
2021/09/01 12:26:17;;;;;;;4.63;2.83;;;;;;;;;;5042021;28;21011;-56
2021/09/01 12:28:48;;;;;;;4.00;2.47;;;;;;;;;;5047630;28;20388;-55
2021/09/01 12:31:21;;;;;;;4.32;2.72;;;;;;;;;;5057724;28;20378;-55
2021/09/01 12:33:47;;;;;;;3.83;2.30;;;;;;;;;;5039760;28;20403;-56
2021/09/01 12:36:23;;;;;;;4.50;2.30;;;;;;;;;;5044254;28;21365;-54
2021/09/01 12:38:51;;;;;;;3.73;2.37;;;;;;;;;;5045515;28;20880;-56
2021/09/01 12:41:21;;;;;;;5.18;3.00;;;;;;;;;;5053198;28;20744;-55
2021/09/01 12:43:48;;;;;;;4.30;2.65;;;;;;;;;;5043102;28;20397;-56
2021/09/01 12:46:22;;;;;;;4.85;2.80;;;;;;;;;;5039777;28;20410;-56
2021/09/01 12:48:48;;;;;;;5.03;2.67;;;;;;;;;;5045533;28;20429;-55
2021/09/01 12:51:15;;;;;;;4.68;2.90;;;;;;;;;;5049574;28;20395;-54
2021/09/01 12:53:41;;;;;;;5.32;2.90;;;;;;;;;;5046695;28;20405;-55
2021/09/01 12:56:07;;;;;;;3.80;2.28;;;;;;;;;;5051116;28;20494;-52
2021/09/01 12:58:33;;;;;;;4.50;2.80;;;;;;;;;;5065636;28;21073;-52
2021/09/01 13:00:58;;;;;;;4.95;2.80;;;;;;;;;;5043415;28;20484;-50
2021/09/01 13:03:24;;;;;;;4.43;2.50;;;;;;;;;;5054868;28;20448;-52
2021/09/01 13:05:50;;;;;;;5.23;2.63;;;;;;;;;;5042239;28;20386;-55
2021/09/01 13:08:18;;;;;;;5.82;2.85;;;;;;;;;;5038188;28;20453;-52
2021/09/01 13:10:44;;;;;;;3.70;2.50;;;;;;;;;;5040275;28;20896;-56
2021/09/01 13:13:11;;;;;;;3.63;2.00;;;;;;;;;;5046491;28;20454;-56
2021/09/01 13:15:38;;;;;;;3.55;1.98;;;;;;;;;;5053096;28;20419;-51
2021/09/01 13:18:04;;;;;;;3.50;1.88;;;;;;;;;;5041128;28;20416;-58
2021/09/01 13:20:31;;;;;;;3.13;1.85;;;;;;;;;;5051554;28;20390;-54
2021/09/01 13:22:57;;;;;;;3.17;1.95;;;;;;;;;;5041215;28;20410;-56
2021/09/01 13:25:23;;;;;;;3.47;1.98;;;;;;;;;;5039569;28;20414;-57
2021/09/01 13:27:49;;;;;;;3.25;1.98;;;;;;;;;;5049066;28;20513;-57
2021/09/01 13:30:16;;;;;;;3.45;2.00;;;;;;;;;;5052402;28;20406;-55
2021/09/01 13:32:42;;;;;;;3.95;1.80;;;;;;;;;;5049294;28;20430;-56
2021/09/01 13:35:09;;;;;;;3.55;2.00;;;;;;;;;;5042423;28;20916;-55
2021/09/01 13:37:35;;;;;;;3.20;1.80;;;;;;;;;;5045391;28;20403;-55
2021/09/01 13:40:01;;;;;;;3.17;1.80;;;;;;;;;;5048291;28;20401;-56
2021/09/01 13:42:27;;;;;;;4.00;1.90;;;;;;;;;;5046958;28;20407;-53
2021/09/01 13:44:53;;;;;;;3.03;1.65;;;;;;;;;;5047739;28;21113;-51
2021/09/01 13:47:19;;;;;;;4.00;2.17;;;;;;;;;;5037149;28;20490;-54
2021/09/01 13:49:46;;;;;;;3.70;1.88;;;;;;;;;;5040751;28;20385;-56
2021/09/01 13:52:12;;;;;;;3.28;1.92;;;;;;;;;;5036907;28;21213;-53
2021/09/01 13:54:38;;;;;;;2.87;1.93;;;;;;;;;;5039272;28;20409;-54
2021/09/01 13:57:05;;;;;;;3.03;1.67;;;;;;;;;;5048703;28;20861;-56
2021/09/01 13:59:32;;;;;;;3.75;1.88;;;;;;;;;;5047822;28;20384;-50
2021/09/01 14:01:58;;;;;;;3.90;2.10;;;;;;;;;;5044256;28;20397;-56
2021/09/01 14:04:24;;;;;;;3.87;2.00;;;;;;;;;;5055818;28;20490;-56
2021/09/01 14:06:50;;;;;;;3.58;2.15;;;;;;;;;;5043318;28;20472;-56
2021/09/01 14:09:16;;;;;;;4.10;2.17;;;;;;;;;;5038497;28;20401;-56
2021/09/01 14:11:44;;;;;;;4.97;2.03;;;;;;;;;;5046221;28;21094;-57
2021/09/01 14:14:10;;;;;;;2.80;1.83;;;;;;;;;;5045414;28;20407;-56
2021/09/01 14:16:36;;;;;;;3.92;1.77;;;;;;;;;;5051991;28;20399;-57
2021/09/01 14:19:02;;;;;;;3.05;1.75;;;;;;;;;;5046176;28;20511;-56
2021/09/01 14:21:28;;;;;;;2.80;1.70;;;;;;;;;;5058110;28;20961;-51
2021/09/01 14:23:55;;;;;;;3.40;1.98;;;;;;;;;;5050720;28;20411;-57
2021/09/01 14:26:21;;;;;;;3.95;2.00;;;;;;;;;;5046385;28;20406;-52
2021/09/01 14:28:47;;;;;;;4.20;2.00;;;;;;;;;;5051316;28;20385;-54
2021/09/01 14:31:13;;;;;;;3.28;1.73;;;;;;;;;;5047166;28;20817;-57
2021/09/01 14:33:40;;;;;;;3.28;1.85;;;;;;;;;;5048785;28;20458;-55
2021/09/01 14:36:06;;;;;;;2.40;1.50;;;;;;;;;;5045083;28;20403;-53
2021/09/01 14:38:32;;;;;;;2.55;1.52;;;;;;;;;;5049869;28;20468;-56
2021/09/01 14:40:58;;;;;;;3.17;1.60;;;;;;;;;;5049342;28;20422;-55